Time;durP1;ratioP1;P1;durP2;ratioP2;P2;SDS_P1;SDS_P2;PMS_P1;PMS_P2;Temp;Humidity;BMP_temperature;BMP_pressure;BME280_temperature;BME280_humidity;BME280_pressure;Samples;Min_cycle;Max_cycle;Signal;HPM_P1;HPM_P2
2023/05/08 00:01:57;;;;;;;;;;;;;;;21.39;54.05;95882.78;10244864;28;1999;-62
2023/05/08 00:06:57;;;;;;;;;;;;;;;21.39;53.90;95886.19;10231906;28;1828;-62
2023/05/08 00:11:57;;;;;;;;;;;;;;;21.39;53.88;95888.84;10236096;28;1906;-62
2023/05/08 00:16:58;;;;;;;;;;;;;;;21.40;53.78;95887.00;10235322;29;1902;-62
2023/05/08 00:21:58;;;;;;;;;;;;;;;21.39;53.81;95899.38;10243226;28;2039;-61
2023/05/08 00:26:58;;;;;;;;;;;;;;;21.39;53.69;95898.63;10236414;28;2217;-62
2023/05/08 00:31:59;;;;;;;;;;;;;;;21.38;54.05;95902.31;10239064;28;1994;-62
2023/05/08 00:36:59;;;;;;;;;;;;;;;21.38;53.77;95899.66;10239053;28;2040;-62
2023/05/08 00:41:59;;;;;;;;;;;;;;;21.37;53.64;95906.03;10231910;28;1881;-62
2023/05/08 00:47:00;;;;;;;;;;;;;;;21.37;53.76;95890.97;10245940;28;1971;-62
2023/05/08 00:52:01;;;;;;;;;;;;;;;21.38;53.48;95897.03;10241625;28;2081;-58
2023/05/08 00:57:01;;;;;;;;;;;;;;;21.36;53.78;95894.69;10237191;28;5185;-62
2023/05/08 01:02:02;;;;;;;;;;;;;;;21.37;53.51;95890.97;10236305;28;2089;-62
2023/05/08 01:07:02;;;;;;;;;;;;;;;21.36;53.42;95888.59;10231160;28;2003;-62
2023/05/08 01:12:16;;;;;;;;;;;;;;;21.37;53.61;95900.75;10232170;28;2091;-62
2023/05/08 01:17:35;;;;;;;;;;;;;;;21.36;53.69;95899.94;10237967;28;1941;-62
2023/05/08 01:23:14;;;;;;;;;;;;;;;21.36;53.29;95904.44;10237142;28;1915;-62
2023/05/08 01:28:29;;;;;;;;;;;;;;;21.36;53.55;95914.97;10078454;29;1948;-62
2023/05/08 01:33:56;;;;;;;;;;;;;;;21.34;53.31;95917.91;10210708;28;2146;-62
2023/05/08 01:39:02;;;;;;;;;;;;;;;21.35;53.48;95923.97;10202507;28;1781;-61
2023/05/08 01:44:20;;;;;;;;;;;;;;;21.34;53.24;95923.16;10237665;28;1840;-62
2023/05/08 01:49:22;;;;;;;;;;;;;;;21.35;53.31;95934.50;10238357;28;1949;-62
2023/05/08 01:54:23;;;;;;;;;;;;;;;21.34;53.05;95936.34;10240738;28;2073;-62
2023/05/08 01:59:23;;;;;;;;;;;;;;;21.35;53.05;95937.16;10236090;28;5216;-62
2023/05/08 02:04:23;;;;;;;;;;;;;;;21.34;53.20;95940.81;10227889;28;2119;-62
2023/05/08 02:09:24;;;;;;;;;;;;;;;21.33;53.00;95936.63;10228963;28;1792;-62
2023/05/08 02:14:25;;;;;;;;;;;;;;;21.33;53.25;95941.91;10231110;28;1915;-61
2023/05/08 02:19:25;;;;;;;;;;;;;;;21.33;53.19;95941.91;10241327;28;1820;-62
2023/05/08 02:24:25;;;;;;;;;;;;;;;21.32;52.91;95943.75;10238848;28;1864;-62
2023/05/08 02:29:26;;;;;;;;;;;;;;;21.33;52.85;95947.19;10240063;28;2048;-62
2023/05/08 02:34:26;;;;;;;;;;;;;;;21.33;52.94;95944.53;10246610;28;1903;-61
2023/05/08 02:39:26;;;;;;;;;;;;;;;21.32;52.91;95945.59;10241591;28;1923;-61
2023/05/08 02:44:26;;;;;;;;;;;;;;;21.32;52.69;95943.75;10238792;28;1951;-61
2023/05/08 02:49:27;;;;;;;;;;;;;;;21.32;52.74;95953.50;10242913;28;1982;-61
2023/05/08 02:54:45;;;;;;;;;;;;;;;21.32;52.87;95948.22;10227408;28;2035;-62
2023/05/08 02:59:49;;;;;;;;;;;;;;;21.32;52.82;95956.13;10233259;28;5142;-61
2023/05/08 03:04:50;;;;;;;;;;;;;;;21.31;52.55;95951.94;10239399;28;1972;-62
2023/05/08 03:09:54;;;;;;;;;;;;;;;21.31;52.48;95954.56;10238273;28;2070;-67
2023/05/08 03:15:05;;;;;;;;;;;;;;;21.31;52.49;95954.56;10215912;28;1919;-61
2023/05/08 03:20:06;;;;;;;;;;;;;;;21.30;52.61;95953.78;10243461;28;1868;-63
2023/05/08 03:25:08;;;;;;;;;;;;;;;21.31;52.71;95960.63;10246346;28;2079;-62
2023/05/08 03:30:08;;;;;;;;;;;;;;;21.31;52.26;95965.13;10247302;28;2118;-62
2023/05/08 03:35:08;;;;;;;;;;;;;;;21.30;52.70;95960.91;10240463;28;1919;-62
2023/05/08 03:40:09;;;;;;;;;;;;;;;21.30;52.42;95958.25;10233880;28;1876;-62
2023/05/08 03:45:09;;;;;;;;;;;;;;;21.30;52.25;95968.81;10241023;28;1846;-62
2023/05/08 03:50:09;;;;;;;;;;;;;;;21.30;52.44;95972.25;10233881;28;1868;-62
2023/05/08 03:55:10;;;;;;;;;;;;;;;21.29;52.21;95973.28;10237223;28;1968;-62
2023/05/08 04:00:14;;;;;;;;;;;;;;;21.30;52.08;95971.44;10242723;28;5114;-62
2023/05/08 04:05:14;;;;;;;;;;;;;;;21.29;51.97;95977.78;10238574;28;2111;-62
2023/05/08 04:10:16;;;;;;;;;;;;;;;21.28;52.07;95992.03;10236862;28;1979;-62
2023/05/08 04:15:17;;;;;;;;;;;;;;;21.29;51.92;95993.63;10235615;28;1985;-61
2023/05/08 04:20:21;;;;;;;;;;;;;;;21.29;52.20;95996.25;10239125;28;1892;-62
2023/05/08 04:25:21;;;;;;;;;;;;;;;21.27;51.78;95993.88;10225900;28;2031;-62
2023/05/08 04:30:21;;;;;;;;;;;;;;;21.27;51.98;95999.13;10239339;28;1839;-62
2023/05/08 04:35:22;;;;;;;;;;;;;;;21.28;51.99;96011.28;10244794;28;1975;-62
2023/05/08 04:40:22;;;;;;;;;;;;;;;21.28;51.86;96013.91;10238414;28;1860;-62
2023/05/08 04:45:22;;;;;;;;;;;;;;;21.26;51.99;96004.69;10232292;28;1907;-62
2023/05/08 04:50:23;;;;;;;;;;;;;;;21.26;51.59;96016.03;10219366;28;1922;-62
2023/05/08 04:55:23;;;;;;;;;;;;;;;21.26;51.55;96012.59;10236583;28;5110;-62
2023/05/08 05:00:23;;;;;;;;;;;;;;;21.26;51.48;96015.22;10230414;28;1843;-62
2023/05/08 05:05:23;;;;;;;;;;;;;;;21.24;51.79;96028.69;10240632;28;1864;-62
2023/05/08 05:10:24;;;;;;;;;;;;;;;21.26;51.51;96033.69;10233621;28;1868;-62
2023/05/08 05:15:24;;;;;;;;;;;;;;;21.24;51.58;96035.81;10234514;28;2087;-62
2023/05/08 05:20:24;;;;;;;;;;;;;;;21.25;51.32;96040.00;10230474;28;2143;-62
2023/05/08 05:25:25;;;;;;;;;;;;;;;21.24;51.60;96043.72;10236440;28;2054;-65
2023/05/08 05:30:25;;;;;;;;;;;;;;;21.23;51.33;96040.28;10229825;28;1911;-63
2023/05/08 05:35:25;;;;;;;;;;;;;;;21.24;51.44;96051.63;10231683;28;1965;-64
2023/05/08 05:40:26;;;;;;;;;;;;;;;21.23;51.38;96052.66;10237602;28;1902;-62
2023/05/08 05:45:26;;;;;;;;;;;;;;;21.22;51.30;96054.53;10237779;28;1915;-63
2023/05/08 05:50:27;;;;;;;;;;;;;;;21.22;51.18;96059.03;10232671;28;2032;-63
2023/05/08 05:55:27;;;;;;;;;;;;;;;21.22;51.25;96067.72;10237454;28;5126;-61
2023/05/08 06:00:27;;;;;;;;;;;;;;;21.22;51.23;96067.72;10242476;28;1864;-62
2023/05/08 06:05:27;;;;;;;;;;;;;;;21.23;51.07;96071.91;10256915;28;2101;-63
2023/05/08 06:10:28;;;;;;;;;;;;;;;21.21;51.30;96068.75;10240248;28;1852;-60
2023/05/08 06:15:28;;;;;;;;;;;;;;;21.22;51.16;96070.34;10243798;28;2231;-62
2023/05/08 06:20:28;;;;;;;;;;;;;;;21.21;51.27;96066.13;10244225;28;2163;-62
2023/05/08 06:25:29;;;;;;;;;;;;;;;21.22;51.17;96069.56;10238223;28;2055;-63
2023/05/08 06:30:30;;;;;;;;;;;;;;;21.22;51.45;96074.84;10242960;28;1891;-63
2023/05/08 06:35:30;;;;;;;;;;;;;;;21.23;51.24;96073.75;10233830;28;1972;-63
2023/05/08 06:40:30;;;;;;;;;;;;;;;21.23;51.30;96079.81;10238137;28;1886;-63
2023/05/08 06:45:31;;;;;;;;;;;;;;;21.23;51.26;96076.41;10245486;28;1977;-63
2023/05/08 06:50:31;;;;;;;;;;;;;;;21.24;51.31;96085.91;10235995;28;2107;-63
2023/05/08 06:55:32;;;;;;;;;;;;;;;21.24;51.39;96089.34;10239545;28;2005;-63
2023/05/08 07:00:32;;;;;;;;;;;;;;;21.24;51.53;96093.81;10245945;28;1871;-63
2023/05/08 07:05:32;;;;;;;;;;;;;;;21.24;51.42;96086.69;10243026;28;2091;-63
2023/05/08 07:10:32;;;;;;;;;;;;;;;21.26;51.33;96094.31;10239025;28;2048;-63
2023/05/08 07:15:33;;;;;;;;;;;;;;;21.25;51.27;96096.16;10234870;28;1970;-63
2023/05/08 07:20:34;;;;;;;;;;;;;;;21.26;51.30;96096.97;10239536;28;1864;-63
2023/05/08 07:25:35;;;;;;;;;;;;;;;21.24;51.42;96099.88;10235131;28;2077;-63
2023/05/08 07:30:35;;;;;;;;;;;;;;;21.25;51.44;96098.81;10207659;28;2079;-63
2023/05/08 07:35:38;;;;;;;;;;;;;;;21.26;51.31;96110.16;10243257;28;1931;-63
2023/05/08 07:40:39;;;;;;;;;;;;;;;21.26;51.60;96104.88;10238134;28;1937;-63
2023/05/08 07:45:39;;;;;;;;;;;;;;;21.26;51.50;96104.88;10233596;28;1859;-63
2023/05/08 07:50:39;;;;;;;;;;;;;;;21.27;51.35;96114.38;10232796;28;1922;-63
2023/05/08 07:55:39;;;;;;;;;;;;;;;21.27;51.44;96109.09;10236882;28;5191;-63
2023/05/08 08:00:40;;;;;;;;;;;;;;;21.29;51.53;96109.63;10240878;28;1852;-63
2023/05/08 08:05:40;;;;;;;;;;;;;;;21.27;51.59;96111.75;10233616;28;1887;-63
2023/05/08 08:10:41;;;;;;;;;;;;;;;21.28;51.65;96113.31;10238708;28;2159;-63
2023/05/08 08:15:41;;;;;;;;;;;;;;;21.27;51.52;96107.22;10240497;28;1969;-63
2023/05/08 08:20:41;;;;;;;;;;;;;;;21.26;51.52;96110.94;10241692;28;1871;-63
2023/05/08 08:25:42;;;;;;;;;;;;;;;21.28;51.41;96108.03;10234717;28;1926;-63
2023/05/08 08:30:42;;;;;;;;;;;;;;;21.29;51.34;96114.91;10235708;28;1867;-64
2023/05/08 08:35:42;;;;;;;;;;;;;;;21.29;51.20;96120.16;10235946;28;1929;-63
2023/05/08 08:40:42;;;;;;;;;;;;;;;21.28;51.44;96115.94;10234071;28;1881;-63
2023/05/08 08:45:43;;;;;;;;;;;;;;;21.29;51.38;96115.66;10235434;28;1930;-63
2023/05/08 08:50:43;;;;;;;;;;;;;;;21.30;51.49;96113.81;10228339;28;1821;-61
2023/05/08 08:55:44;;;;;;;;;;;;;;;21.31;51.13;96110.16;10231501;28;5204;-61
2023/05/08 09:00:44;;;;;;;;;;;;;;;21.30;51.56;96111.19;10237039;28;1945;-61
2023/05/08 09:05:45;;;;;;;;;;;;;;;21.30;51.35;96111.19;10223617;28;2199;-60
2023/05/08 09:10:46;;;;;;;;;;;;;;;21.31;51.16;96110.16;10233166;28;2010;-65
2023/05/08 09:15:46;;;;;;;;;;;;;;;21.30;51.10;96109.34;10234353;28;1969;-61
2023/05/08 09:20:46;;;;;;;;;;;;;;;21.32;51.30;96109.88;10232197;28;2015;-61
2023/05/08 09:25:47;;;;;;;;;;;;;;;21.31;51.10;96110.91;10237296;28;1895;-61
2023/05/08 09:30:51;;;;;;;;;;;;;;;21.31;51.06;96112.78;10227289;28;1981;-61
2023/05/08 09:35:51;;;;;;;;;;;;;;;21.32;51.19;96109.06;10239355;28;1915;-61
2023/05/08 09:41:04;;;;;;;;;;;;;;;21.32;51.05;96109.06;10234405;28;2039;-61
2023/05/08 09:46:23;;;;;;;;;;;;;;;21.34;50.89;96114.88;10228104;28;1879;-60
2023/05/08 09:51:23;;;;;;;;;;;;;;;21.33;50.81;96111.44;10236003;28;1997;-61
2023/05/08 09:56:31;;;;;;;;;;;;;;;21.34;51.07;96117.50;10227588;28;5153;-61
2023/05/08 10:01:32;;;;;;;;;;;;;;;21.34;50.79;96122.78;10234588;28;2148;-61
2023/05/08 10:06:32;;;;;;;;;;;;;;;21.35;50.77;96113.81;10230323;28;1947;-61
2023/05/08 10:11:32;;;;;;;;;;;;;;;21.36;50.75;96115.38;10235647;28;2022;-61
2023/05/08 10:16:40;;;;;;;;;;;;;;;21.36;50.61;96110.09;10242155;28;1975;-61
2023/05/08 10:21:43;;;;;;;;;;;;;;;21.36;50.69;96110.09;10233468;28;2223;-61
2023/05/08 10:26:47;;;;;;;;;;;;;;;21.37;50.92;96109.06;10230104;28;1910;-61
2023/05/08 10:31:47;;;;;;;;;;;;;;;21.38;50.84;96108.00;10234265;28;1956;-61
2023/05/08 10:36:48;;;;;;;;;;;;;;;21.39;50.97;96106.94;10228897;28;2012;-61
2023/05/08 10:41:49;;;;;;;;;;;;;;;21.41;50.91;96105.59;10222743;28;1921;-61
2023/05/08 10:46:54;;;;;;;;;;;;;;;21.43;51.04;96108.00;10233512;28;1886;-62
2023/05/08 10:52:01;;;;;;;;;;;;;;;21.43;51.11;96098.19;10242045;28;1449;-63
2023/05/08 10:57:11;;;;;;;;;;;;;;;21.43;51.26;96094.81;10251380;28;2199;-62
2023/05/08 11:02:11;;;;;;;;;;;;;;;21.43;51.17;96094.81;10246682;28;1812;-64
2023/05/08 11:07:12;;;;;;;;;;;;;;;21.44;50.95;96093.72;10242037;28;1981;-63
2023/05/08 11:12:17;;;;;;;;;;;;;;;21.42;51.04;96096.63;10246215;28;1927;-62
2023/05/08 11:17:21;;;;;;;;;;;;;;;21.38;50.19;96094.81;10230768;28;1950;-62
2023/05/08 11:22:23;;;;;;;;;;;;;;;21.32;49.05;96093.25;10233038;28;1824;-62
2023/05/08 11:27:32;;;;;;;;;;;;;;;21.29;48.87;96088.53;10241355;28;1895;-62
2023/05/08 11:32:57;;;;;;;;;;;;;;;21.26;48.75;96089.06;10234846;28;1973;-62
2023/05/08 11:38:12;;;;;;;;;;;;;;;21.30;49.96;96076.91;10228817;28;1894;-61
2023/05/08 11:43:40;;;;;;;;;;;;;;;21.33;49.78;96079.78;10236335;28;1870;-62
2023/05/08 11:48:40;;;;;;;;;;;;;;;21.37;50.04;96080.06;10234845;28;1955;-62
2023/05/08 11:53:41;;;;;;;;;;;;;;;21.37;50.02;96086.09;10240451;28;2136;-63
2023/05/08 11:58:41;;;;;;;;;;;;;;;21.38;50.42;96089.53;10230842;28;4992;-62
2023/05/08 12:03:41;;;;;;;;;;;;;;;21.38;50.34;96090.31;10238576;28;1871;-62
2023/05/08 12:08:42;;;;;;;;;;;;;;;21.39;50.41;96091.88;10231361;28;1954;-63
2023/05/08 12:13:42;;;;;;;;;;;;;;;21.38;50.37;96087.69;10234552;28;1931;-62
2023/05/08 12:18:42;;;;;;;;;;;;;;;21.40;50.29;96084.78;10228441;28;1947;-62
2023/05/08 12:23:43;;;;;;;;;;;;;;;21.39;50.32;96089.25;10235642;28;1947;-61
2023/05/08 12:28:44;;;;;;;;;;;;;;;21.40;50.10;96090.06;10236929;28;1848;-63
2023/05/08 12:33:44;;;;;;;;;;;;;;;21.41;50.17;96091.66;10229613;28;1899;-62
2023/05/08 12:38:45;;;;;;;;;;;;;;;21.41;50.07;96086.38;10236371;28;1884;-61
2023/05/08 12:43:45;;;;;;;;;;;;;;;21.41;49.96;96086.38;10234808;28;1872;-63
2023/05/08 12:48:45;;;;;;;;;;;;;;;21.39;50.04;96088.50;10233650;28;2068;-62
2023/05/08 12:53:45;;;;;;;;;;;;;;;21.41;49.93;96083.72;10237991;28;1908;-62
2023/05/08 12:58:46;;;;;;;;;;;;;;;21.40;49.82;96080.28;10229063;28;5071;-63
2023/05/08 13:03:51;;;;;;;;;;;;;;;21.39;49.85;96077.94;10236144;28;1832;-63
2023/05/08 13:08:51;;;;;;;;;;;;;;;21.40;49.89;96074.22;10231777;28;1887;-63
2023/05/08 13:13:52;;;;;;;;;;;;;;;21.40;50.15;96076.88;10222128;28;1972;-63
2023/05/08 13:18:52;;;;;;;;;;;;;;;21.39;49.79;96078.69;10232519;28;1918;-63
2023/05/08 13:23:52;;;;;;;;;;;;;;;21.38;49.84;96066.59;10238357;28;1807;-63
2023/05/08 13:28:52;;;;;;;;;;;;;;;21.39;49.85;96067.38;10231931;28;1884;-63
2023/05/08 13:33:53;;;;;;;;;;;;;;;21.39;49.79;96067.38;10243551;28;1982;-63
2023/05/08 13:38:56;;;;;;;;;;;;;;;21.38;50.09;96071.88;10228976;28;1934;-62
2023/05/08 13:43:56;;;;;;;;;;;;;;;21.38;49.83;96069.22;10231187;28;1893;-62
2023/05/08 13:48:56;;;;;;;;;;;;;;;21.38;49.74;96061.31;10225917;28;2208;-63
2023/05/08 13:53:57;;;;;;;;;;;;;;;21.37;49.54;96058.97;10223871;28;1907;-63
2023/05/08 13:58:57;;;;;;;;;;;;;;;21.38;49.76;96063.16;10231768;28;5284;-62
2023/05/08 14:03:57;;;;;;;;;;;;;;;21.37;49.74;96069.50;10233058;28;1859;-62
2023/05/08 14:08:58;;;;;;;;;;;;;;;21.37;49.53;96066.88;10231337;29;1883;-63
2023/05/08 14:13:58;;;;;;;;;;;;;;;21.37;49.63;96062.38;10230282;28;2045;-62
2023/05/08 14:18:58;;;;;;;;;;;;;;;21.37;49.46;96066.88;10228369;28;1884;-63
2023/05/08 14:24:00;;;;;;;;;;;;;;;21.39;49.35;96067.38;10236810;28;2025;-63
2023/05/08 14:29:00;;;;;;;;;;;;;;;21.38;49.39;96063.16;10238720;28;2078;-63
2023/05/08 14:34:00;;;;;;;;;;;;;;;21.39;49.56;96062.13;10242052;28;1975;-63
2023/05/08 14:39:01;;;;;;;;;;;;;;;21.39;49.46;96060.25;10238174;28;1953;-63
2023/05/08 14:44:01;;;;;;;;;;;;;;;21.38;49.38;96049.97;10242042;28;2052;-63
2023/05/08 14:49:01;;;;;;;;;;;;;;;21.39;49.56;96048.94;10236373;28;1919;-61
2023/05/08 14:54:02;;;;;;;;;;;;;;;21.39;49.52;96052.34;10235231;28;1972;-63
2023/05/08 14:59:02;;;;;;;;;;;;;;;21.39;49.38;96051.56;10238803;28;5102;-63
2023/05/08 15:04:02;;;;;;;;;;;;;;;21.39;49.21;96051.56;10237461;28;1998;-63
2023/05/08 15:09:03;;;;;;;;;;;;;;;21.40;49.29;96058.41;10239111;28;1856;-63
2023/05/08 15:14:03;;;;;;;;;;;;;;;21.39;49.71;96062.88;10233811;28;1911;-62
2023/05/08 15:19:03;;;;;;;;;;;;;;;21.39;49.25;96059.47;10235761;28;1963;-63
2023/05/08 15:24:04;;;;;;;;;;;;;;;21.38;49.58;96048.13;10239721;28;1972;-63
2023/05/08 15:29:04;;;;;;;;;;;;;;;21.39;49.25;96054.19;10239429;28;1789;-62
2023/05/08 15:34:05;;;;;;;;;;;;;;;21.39;49.45;96062.13;10233898;28;1921;-62
2023/05/08 15:39:05;;;;;;;;;;;;;;;21.38;49.31;96066.59;10243662;28;2129;-62
2023/05/08 15:44:05;;;;;;;;;;;;;;;21.39;49.31;96062.13;10231763;28;1886;-64
2023/05/08 15:49:06;;;;;;;;;;;;;;;21.40;49.26;96053.94;10236818;28;1883;-63
2023/05/08 15:54:06;;;;;;;;;;;;;;;21.39;49.44;96051.56;10234568;28;1974;-63
2023/05/08 15:59:06;;;;;;;;;;;;;;;21.37;49.39;96043.91;10236687;28;4994;-63
2023/05/08 16:04:07;;;;;;;;;;;;;;;21.40;49.34;96042.59;10236766;28;1976;-61
2023/05/08 16:09:07;;;;;;;;;;;;;;;21.40;49.50;96047.84;10230686;28;1890;-63
2023/05/08 16:14:08;;;;;;;;;;;;;;;21.40;49.34;96042.59;10237817;28;1922;-62
2023/05/08 16:19:08;;;;;;;;;;;;;;;21.40;49.27;96042.59;10237471;28;1856;-62
2023/05/08 16:24:08;;;;;;;;;;;;;;;21.36;49.33;96039.72;10237811;28;1777;-62
2023/05/08 16:29:09;;;;;;;;;;;;;;;21.38;49.18;96036.78;10232178;28;2040;-62
2023/05/08 16:34:09;;;;;;;;;;;;;;;21.38;49.26;96037.59;10238776;28;2116;-61
2023/05/08 16:39:11;;;;;;;;;;;;;;;21.37;49.18;96037.88;10233861;28;1850;-62
2023/05/08 16:44:11;;;;;;;;;;;;;;;21.37;49.39;96038.63;10232291;28;1906;-63
2023/05/08 16:49:12;;;;;;;;;;;;;;;21.37;49.19;96041.28;10233897;29;1874;-63
2023/05/08 16:54:12;;;;;;;;;;;;;;;21.37;49.12;96041.28;10213323;28;1968;-62
2023/05/08 16:59:12;;;;;;;;;;;;;;;21.37;49.24;96036.00;10226046;28;5093;-63
2023/05/08 17:04:13;;;;;;;;;;;;;;;21.37;49.44;96045.78;10233907;28;2251;-62
2023/05/08 17:09:13;;;;;;;;;;;;;;;21.38;49.18;96050.78;10233915;28;1935;-62
2023/05/08 17:14:13;;;;;;;;;;;;;;;21.38;49.31;96060.53;10236759;28;1910;-62
2023/05/08 17:19:14;;;;;;;;;;;;;;;21.35;48.74;96066.34;10236988;28;1847;-61
2023/05/08 17:24:14;;;;;;;;;;;;;;;21.34;49.10;96073.47;10236438;28;1820;-62
2023/05/08 17:29:14;;;;;;;;;;;;;;;21.33;48.42;96073.75;10232823;28;2064;-63
2023/05/08 17:34:15;;;;;;;;;;;;;;;21.32;49.09;96072.16;10247313;28;1914;-62
2023/05/08 17:39:18;;;;;;;;;;;;;;;21.39;50.16;96075.31;10237396;28;2038;-61
2023/05/08 17:44:18;;;;;;;;;;;;;;;21.42;50.85;96067.63;10230707;28;2103;-60
2023/05/08 17:49:19;;;;;;;;;;;;;;;21.46;51.28;96078.41;10237377;28;1773;-61
2023/05/08 17:54:19;;;;;;;;;;;;;;;21.49;51.07;96085.81;10229011;28;1892;-61
2023/05/08 17:59:20;;;;;;;;;;;;;;;21.50;51.05;96084.72;10244270;28;5049;-61
2023/05/08 18:04:20;;;;;;;;;;;;;;;21.51;51.38;96089.75;10244183;28;2036;-61
2023/05/08 18:09:20;;;;;;;;;;;;;;;21.54;51.01;96096.31;10245661;28;1820;-60
2023/05/08 18:14:21;;;;;;;;;;;;;;;21.55;51.21;96096.06;10236697;28;1934;-61
2023/05/08 18:19:21;;;;;;;;;;;;;;;21.56;51.26;96094.19;10242879;28;1876;-61
2023/05/08 18:24:21;;;;;;;;;;;;;;;21.57;50.92;96095.78;10236904;28;1952;-61
2023/05/08 18:29:22;;;;;;;;;;;;;;;21.59;50.64;96101.56;10239198;28;2227;-62
2023/05/08 18:34:22;;;;;;;;;;;;;;;21.60;50.75;96108.41;10238226;29;2091;-60
2023/05/08 18:39:23;;;;;;;;;;;;;;;21.60;50.91;96105.78;10238727;28;1907;-61
2023/05/08 18:44:23;;;;;;;;;;;;;;;21.60;50.71;96106.56;10236536;28;1896;-62
2023/05/08 18:49:23;;;;;;;;;;;;;;;21.60;50.71;96105.78;10239714;29;1895;-62
2023/05/08 18:54:25;;;;;;;;;;;;;;;21.61;50.82;96113.44;10241919;28;1923;-62
2023/05/08 18:59:26;;;;;;;;;;;;;;;21.60;50.85;96121.59;10240412;28;5018;-62
2023/05/08 19:04:26;;;;;;;;;;;;;;;21.59;51.16;96115.56;10237017;28;1887;-63
2023/05/08 19:09:26;;;;;;;;;;;;;;;21.58;51.04;96110.53;10244302;28;1882;-63
2023/05/08 19:14:26;;;;;;;;;;;;;;;21.57;50.98;96112.41;10243012;28;1977;-63
2023/05/08 19:19:27;;;;;;;;;;;;;;;21.56;50.87;96117.94;10242702;28;2082;-64
2023/05/08 19:24:28;;;;;;;;;;;;;;;21.54;50.91;96120.84;10237708;28;2017;-63
2023/05/08 19:29:29;;;;;;;;;;;;;;;21.53;51.00;96116.66;10242190;28;1773;-65
2023/05/08 19:34:30;;;;;;;;;;;;;;;21.51;50.94;96120.59;10239709;28;1992;-64
2023/05/08 19:39:31;;;;;;;;;;;;;;;21.50;50.77;96111.91;10240261;29;1951;-64
2023/05/08 19:44:31;;;;;;;;;;;;;;;21.50;50.88;96126.94;10238457;28;1883;-63
2023/05/08 19:49:31;;;;;;;;;;;;;;;21.50;51.90;96127.72;10239697;29;1857;-64
2023/05/08 19:54:32;;;;;;;;;;;;;;;21.52;52.40;96124.81;10233117;28;2125;-66
2023/05/08 19:59:32;;;;;;;;;;;;;;;21.54;52.81;96114.78;10235292;28;5046;-65
2023/05/08 20:04:32;;;;;;;;;;;;;;;21.54;52.95;96126.13;10241727;28;1840;-66
2023/05/08 20:09:33;;;;;;;;;;;;;;;21.55;53.35;96125.09;10237005;28;2003;-66
2023/05/08 20:14:33;;;;;;;;;;;;;;;21.56;53.44;96128.47;10233822;28;1922;-66
2023/05/08 20:19:34;;;;;;;;;;;;;;;21.55;53.42;96124.28;10234525;28;2160;-65
2023/05/08 20:24:34;;;;;;;;;;;;;;;21.55;53.26;96138.28;10236604;28;1857;-66
2023/05/08 20:29:34;;;;;;;;;;;;;;;21.55;53.53;96130.34;10235852;28;1975;-65
2023/05/08 20:34:35;;;;;;;;;;;;;;;21.54;53.33;96128.75;10244083;28;1910;-65
2023/05/08 20:39:35;;;;;;;;;;;;;;;21.54;53.26;96120.06;10236750;28;1979;-66
2023/05/08 20:44:35;;;;;;;;;;;;;;;21.52;53.04;96115.06;10237285;28;1891;-65
2023/05/08 20:49:35;;;;;;;;;;;;;;;21.52;52.96;96114.25;10233346;28;1899;-65
2023/05/08 20:54:36;;;;;;;;;;;;;;;21.51;52.77;96110.84;10229551;29;2027;-65
2023/05/08 20:59:36;;;;;;;;;;;;;;;21.51;52.76;96112.69;10234765;28;5006;-65
2023/05/08 21:04:36;;;;;;;;;;;;;;;21.50;52.66;96106.63;10233640;28;1831;-66
2023/05/08 21:09:37;;;;;;;;;;;;;;;21.49;52.60;96104.25;10237326;28;1895;-65
2023/05/08 21:14:37;;;;;;;;;;;;;;;21.48;52.72;96106.09;10232929;28;2140;-66
2023/05/08 21:19:37;;;;;;;;;;;;;;;21.48;52.63;96102.66;10236357;28;1853;-64
2023/05/08 21:24:41;;;;;;;;;;;;;;;21.47;52.65;96098.47;10233656;28;1876;-64
2023/05/08 21:29:41;;;;;;;;;;;;;;;21.47;52.29;96107.19;10233526;28;1828;-64
2023/05/08 21:34:42;;;;;;;;;;;;;;;21.45;52.50;96092.69;10231275;28;1978;-66
2023/05/08 21:39:42;;;;;;;;;;;;;;;21.45;52.33;96092.69;10234270;28;1941;-65
2023/05/08 21:44:42;;;;;;;;;;;;;;;21.45;52.18;96087.41;10232129;28;1877;-64
2023/05/08 21:49:43;;;;;;;;;;;;;;;21.45;52.08;96088.16;10229961;28;1890;-66
2023/05/08 21:54:43;;;;;;;;;;;;;;;21.43;52.08;96081.63;10229611;29;1965;-65
2023/05/08 21:59:43;;;;;;;;;;;;;;;21.43;51.94;96073.69;10232285;28;4975;-65
2023/05/08 22:04:43;;;;;;;;;;;;;;;21.42;51.84;96067.63;10233353;28;1916;-66
2023/05/08 22:09:44;;;;;;;;;;;;;;;21.43;51.55;96073.69;10233494;28;1828;-65
2023/05/08 22:14:44;;;;;;;;;;;;;;;21.42;51.76;96072.09;10241793;28;2057;-65
2023/05/08 22:19:44;;;;;;;;;;;;;;;21.41;51.47;96071.31;10245442;28;1485;-65
2023/05/08 22:24:44;;;;;;;;;;;;;;;21.41;51.60;96066.03;10236710;28;1926;-66
2023/05/08 22:29:45;;;;;;;;;;;;;;;21.40;51.18;96064.47;10237719;28;1969;-65
2023/05/08 22:34:48;;;;;;;;;;;;;;;21.38;50.77;96061.31;10226410;28;2035;-66
2023/05/08 22:39:48;;;;;;;;;;;;;;;21.38;50.69;96060.53;10232936;28;1880;-65
2023/05/08 22:44:49;;;;;;;;;;;;;;;21.37;50.63;96051.81;10237180;28;1918;-65
2023/05/08 22:49:49;;;;;;;;;;;;;;;21.37;50.52;96061.59;10240158;28;1883;-65
2023/05/08 22:54:49;;;;;;;;;;;;;;;21.37;50.71;96053.69;10237481;29;1978;-64
2023/05/08 22:59:50;;;;;;;;;;;;;;;21.36;50.44;96054.72;10240983;28;4978;-65
2023/05/08 23:04:50;;;;;;;;;;;;;;;21.35;50.29;96056.56;10240570;29;1817;-65
2023/05/08 23:09:50;;;;;;;;;;;;;;;21.36;50.27;96062.66;10236577;28;2048;-65
2023/05/08 23:14:50;;;;;;;;;;;;;;;21.35;50.21;96056.56;10234906;28;1973;-65
2023/05/08 23:19:51;;;;;;;;;;;;;;;21.34;50.03;96057.66;10243853;28;1839;-65
2023/05/08 23:24:51;;;;;;;;;;;;;;;21.34;50.11;96055.00;10236329;29;2009;-65
2023/05/08 23:29:51;;;;;;;;;;;;;;;21.33;50.27;96050.00;10233514;28;2091;-65
2023/05/08 23:34:52;;;;;;;;;;;;;;;21.33;50.15;96039.47;10241317;28;1911;-65
2023/05/08 23:39:52;;;;;;;;;;;;;;;21.33;50.13;96034.19;10239197;28;2075;-66
2023/05/08 23:44:52;;;;;;;;;;;;;;;21.32;49.76;96022.84;10233456;28;2018;-66
2023/05/08 23:49:54;;;;;;;;;;;;;;;21.33;49.73;96026.28;10244516;28;1893;-66
2023/05/08 23:54:54;;;;;;;;;;;;;;;21.31;49.71;96015.22;10233394;28;1954;-65
2023/05/08 23:59:54;;;;;;;;;;;;;;;21.31;49.69;96008.06;10237092;28;1882;-65
